createdAt,value
2022-11-15T00:02:21.074Z,20.48
2022-11-15T00:07:53.386Z,21.50
2022-11-15T00:12:47.594Z,17.90
2022-11-15T00:17:50.652Z,20.75
2022-11-15T00:22:55.564Z,20.13
2022-11-15T00:27:58.934Z,22.58
2022-11-15T00:33:03.879Z,24.10
2022-11-15T00:38:07.764Z,21.75
2022-11-15T00:43:10.582Z,21.30
2022-11-15T00:48:13.101Z,23.10
2022-11-15T00:53:17.860Z,20.92
2022-11-15T00:58:20.768Z,19.20
2022-11-15T01:03:23.446Z,18.08
2022-11-15T01:08:27.407Z,18.10
2022-11-15T01:13:33.074Z,16.70
2022-11-15T01:18:35.881Z,17.15
2022-11-15T01:23:40.261Z,16.05
2022-11-15T01:28:43.969Z,13.05
2022-11-15T01:33:47.419Z,13.63
2022-11-15T01:38:56.176Z,16.90
2022-11-15T01:44:19.939Z,15.05
2022-11-15T01:49:25.642Z,17.00
2022-11-15T01:54:29.948Z,18.17
2022-11-15T01:59:33.034Z,13.10
2022-11-15T02:04:40.025Z,15.10
2022-11-15T02:09:45.279Z,16.05
2022-11-15T02:14:52.120Z,14.25
2022-11-15T02:20:38.438Z,17.27
2022-11-15T02:25:55.929Z,17.50
2022-11-15T02:31:06.924Z,15.88
2022-11-15T02:36:16.897Z,17.30
2022-11-15T02:41:26.188Z,16.38
2022-11-15T02:46:53.958Z,16.42
2022-11-15T02:51:57.816Z,14.27
2022-11-15T02:57:03.427Z,18.63
2022-11-15T03:02:20.192Z,14.80
2022-11-15T03:07:31.501Z,17.35
2022-11-15T03:12:42.827Z,16.20
2022-11-15T03:17:52.863Z,15.88
2022-11-15T03:22:57.986Z,15.23
2022-11-15T03:28:05.911Z,15.45
2022-11-15T03:33:11.754Z,16.33
2022-11-15T03:38:21.713Z,16.02
2022-11-15T03:43:32.851Z,17.83
2022-11-15T03:48:42.531Z,14.88
2022-11-15T03:53:45.125Z,13.70
2022-11-15T03:58:47.664Z,14.93
2022-11-15T04:03:51.658Z,15.35
2022-11-15T04:08:54.173Z,10.02
2022-11-15T04:13:56.693Z,12.80
2022-11-15T04:19:18.341Z,17.23
2022-11-15T04:24:20.959Z,18.50
2022-11-15T04:29:38.528Z,15.93
2022-11-15T04:34:42.408Z,14.30
2022-11-15T04:39:45.436Z,11.45
2022-11-15T04:44:48.109Z,14.43
2022-11-15T04:49:52.000Z,13.43
2022-11-15T04:54:54.676Z,13.25
2022-11-15T04:59:57.245Z,10.98
2022-11-15T05:05:01.132Z,12.43
2022-11-15T05:10:03.761Z,8.73
2022-11-15T05:15:07.331Z,14.77
2022-11-15T05:20:12.418Z,13.50
2022-11-15T05:25:14.959Z,12.02
2022-11-15T05:30:18.276Z,12.27
2022-11-15T05:35:31.871Z,10.65
2022-11-15T05:40:36.433Z,11.43
2022-11-15T05:50:46.271Z,12.88
2022-11-15T05:55:49.569Z,12.57
2022-11-15T06:00:52.209Z,14.02
2022-11-15T06:05:56.296Z,10.13
2022-11-15T06:10:58.824Z,12.00
2022-11-15T06:16:01.890Z,12.27
2022-11-15T06:21:06.917Z,14.98
2022-11-15T06:26:09.456Z,11.50
2022-11-15T06:31:13.259Z,13.73
2022-11-15T06:36:18.262Z,13.40
2022-11-15T06:41:21.978Z,13.05
2022-11-15T06:46:24.721Z,19.93
2022-11-15T06:51:28.727Z,14.50
2022-11-15T06:56:31.373Z,10.20
2022-11-15T07:01:33.942Z,14.27
2022-11-15T07:06:37.901Z,17.70
2022-11-15T07:11:40.790Z,17.00
2022-11-15T07:16:43.360Z,12.45
2022-11-15T07:21:47.622Z,12.75
2022-11-15T07:26:50.283Z,16.52
2022-11-15T07:31:53.052Z,15.30
2022-11-15T07:37:06.070Z,13.95
2022-11-15T07:42:26.361Z,16.77
2022-11-15T07:47:30.437Z,16.92
2022-11-15T07:52:34.433Z,14.88
2022-11-15T07:57:37.359Z,19.67
2022-11-15T08:02:40.222Z,17.17
2022-11-15T08:07:44.310Z,16.15
2022-11-15T08:12:46.873Z,17.33
2022-11-15T08:17:51.048Z,13.35
2022-11-15T08:22:57.650Z,13.40
2022-11-15T08:28:01.886Z,16.23
2022-11-15T08:33:05.068Z,15.75
2022-11-15T08:38:09.030Z,17.92
2022-11-15T08:43:11.584Z,19.85
2022-11-15T08:48:14.138Z,18.35
2022-11-15T08:53:18.076Z,17.23
2022-11-15T08:58:20.694Z,17.65
2022-11-15T09:03:23.301Z,14.45
2022-11-15T09:08:48.192Z,16.73
2022-11-15T09:13:52.615Z,15.05
2022-11-15T09:18:55.697Z,16.25
2022-11-15T09:23:59.928Z,14.35
2022-11-15T09:29:03.219Z,14.40
2022-11-15T09:34:05.778Z,17.20
2022-11-15T09:39:10.375Z,16.42
2022-11-15T09:44:30.854Z,12.32
2022-11-15T09:49:34.661Z,7.30
2022-11-15T09:54:56.431Z,5.75
2022-11-15T10:05:43.263Z,6.60
2022-11-15T10:11:00.600Z,5.05
2022-11-15T10:16:24.934Z,3.35
2022-11-15T10:21:39.840Z,5.40
2022-11-15T10:26:49.690Z,4.20
2022-11-15T10:31:52.395Z,3.78
2022-11-15T10:36:59.021Z,3.70
2022-11-15T10:42:18.382Z,4.82
2022-11-15T10:47:32.422Z,10.13
2022-11-15T10:52:38.688Z,5.68
2022-11-15T10:57:52.247Z,5.55
2022-11-15T11:03:00.588Z,4.10
2022-11-15T11:08:05.995Z,5.78
2022-11-15T11:13:17.259Z,6.55
2022-11-15T11:18:25.889Z,4.07
2022-11-15T11:23:44.109Z,3.22
2022-11-15T11:28:53.845Z,4.03
2022-11-15T11:34:06.369Z,3.50
2022-11-15T11:39:21.143Z,3.38
2022-11-15T11:44:34.666Z,3.08
2022-11-15T11:49:44.227Z,2.97
2022-11-15T11:54:57.055Z,3.00
2022-11-15T12:00:06.197Z,2.47
2022-11-15T12:05:15.506Z,6.72
2022-11-15T12:10:24.260Z,2.63
2022-11-15T12:15:32.262Z,3.33
2022-11-15T12:20:38.598Z,3.03
2022-11-15T12:25:47.753Z,2.47
2022-11-15T12:30:56.761Z,3.53
2022-11-15T12:36:01.337Z,3.72
2022-11-15T12:41:20.031Z,2.63
2022-11-15T12:46:46.734Z,3.55
2022-11-15T12:52:08.648Z,5.35
2022-11-15T12:57:41.471Z,5.03
2022-11-15T13:02:46.251Z,5.10
2022-11-15T13:08:00.220Z,2.90
2022-11-15T13:13:04.459Z,5.50
2022-11-15T13:18:35.888Z,2.95
2022-11-15T13:23:38.727Z,3.38
2022-11-15T13:28:46.643Z,2.78
2022-11-15T13:33:50.885Z,3.97
2022-11-15T13:38:59.709Z,3.10
2022-11-15T13:44:03.998Z,4.13
2022-11-15T13:49:12.878Z,4.50
2022-11-15T13:54:29.510Z,4.25
2022-11-15T13:59:35.350Z,3.70
2022-11-15T14:04:41.474Z,5.15
2022-11-15T14:09:46.220Z,5.38
2022-11-15T14:14:49.276Z,8.00
2022-11-15T14:19:53.465Z,4.95
2022-11-15T14:30:23.667Z,4.68
2022-11-15T14:35:27.614Z,6.60
2022-11-15T14:40:30.576Z,4.40
2022-11-15T14:45:33.491Z,5.72
2022-11-15T14:50:38.192Z,5.22
2022-11-15T14:55:40.914Z,10.93
2022-11-15T15:00:43.949Z,8.00
2022-11-15T15:05:48.955Z,9.73
2022-11-15T15:10:51.482Z,11.88
2022-11-15T15:15:54.656Z,7.95
2022-11-15T15:21:04.009Z,14.18
2022-11-15T15:26:06.583Z,9.52
2022-11-15T15:31:10.434Z,8.57
2022-11-15T15:36:15.764Z,20.13
2022-11-15T15:41:19.066Z,22.05
2022-11-15T15:46:22.246Z,14.13
2022-11-15T15:51:26.322Z,18.52
2022-11-15T15:56:29.153Z,9.38
2022-11-15T16:01:31.887Z,7.80
2022-11-15T16:06:43.230Z,12.93
2022-11-15T16:11:48.030Z,15.05
2022-11-15T16:16:50.663Z,16.88
2022-11-15T16:21:54.585Z,21.15
2022-11-15T16:26:57.185Z,15.63
2022-11-15T16:31:59.800Z,14.48
2022-11-15T16:37:04.037Z,18.45
2022-11-15T16:42:06.758Z,23.92
2022-11-15T16:47:18.513Z,18.48
2022-11-15T16:52:22.421Z,18.77
2022-11-15T16:57:26.113Z,17.52
2022-11-15T17:02:28.813Z,12.33
2022-11-15T17:07:32.793Z,12.15
2022-11-15T17:12:36.481Z,9.20
2022-11-15T17:17:39.035Z,10.20
2022-11-15T17:22:43.042Z,14.10
2022-11-15T17:27:45.672Z,15.23
2022-11-15T17:32:49.725Z,13.77
2022-11-15T17:37:53.645Z,16.23
2022-11-15T17:42:57.395Z,17.85
2022-11-15T17:48:00.321Z,16.70
2022-11-15T17:53:04.250Z,21.95
2022-11-15T17:58:06.840Z,19.70
2022-11-15T18:03:09.463Z,24.27
2022-11-15T18:08:17.615Z,20.02
2022-11-15T18:13:21.271Z,20.17
2022-11-15T18:18:23.825Z,19.27
2022-11-15T18:23:27.839Z,19.52
2022-11-15T18:28:33.129Z,15.82
2022-11-15T18:33:36.192Z,15.70
2022-11-15T18:38:41.326Z,17.42
2022-11-15T18:43:45.381Z,13.95
2022-11-15T18:48:50.438Z,15.70
2022-11-15T18:53:55.598Z,26.90
2022-11-15T18:59:00.038Z,26.13
2022-11-15T19:04:06.573Z,21.00
2022-11-15T19:09:11.829Z,26.17
2022-11-15T19:14:16.233Z,26.95
2022-11-15T19:19:20.922Z,19.17
2022-11-15T19:24:25.029Z,22.45
2022-11-15T19:29:28.948Z,19.23
2022-11-15T19:34:31.690Z,27.65
2022-11-15T19:39:40.939Z,22.33
2022-11-15T19:44:43.877Z,17.08
2022-11-15T19:49:47.516Z,17.60
2022-11-15T19:54:51.482Z,12.03
2022-11-15T19:59:54.055Z,16.90
2022-11-15T20:04:56.641Z,12.40
2022-11-15T20:10:01.219Z,16.20
2022-11-15T20:20:07.431Z,14.07
2022-11-15T20:25:12.615Z,16.03
2022-11-15T20:30:15.511Z,16.45
2022-11-15T20:35:18.191Z,19.48
2022-11-15T20:40:22.251Z,16.63
2022-11-15T20:45:25.058Z,17.50
2022-11-15T20:50:42.211Z,18.10
2022-11-15T20:55:48.921Z,19.35
2022-11-15T21:00:51.662Z,18.95
2022-11-15T21:05:55.269Z,19.17
2022-11-15T21:11:16.992Z,15.68
2022-11-15T21:16:19.610Z,18.00
2022-11-15T21:21:22.434Z,13.30
2022-11-15T21:26:26.422Z,13.32
2022-11-15T21:31:29.225Z,12.73
2022-11-15T21:36:32.016Z,18.52
2022-11-15T21:41:36.384Z,15.90
2022-11-15T21:46:39.154Z,15.35
2022-11-15T21:51:42.224Z,12.65
2022-11-15T21:56:46.347Z,14.10
2022-11-15T22:02:06.767Z,14.00
2022-11-15T22:07:09.391Z,17.20
2022-11-15T22:12:13.831Z,17.75
2022-11-15T22:17:16.689Z,17.98
2022-11-15T22:22:19.362Z,14.63
2022-11-15T22:27:23.325Z,16.80
2022-11-15T22:32:25.963Z,15.48
2022-11-15T22:37:28.605Z,12.52
2022-11-15T22:42:34.473Z,13.20
2022-11-15T22:47:37.243Z,16.23
2022-11-15T22:52:39.972Z,16.75
2022-11-15T22:57:44.223Z,13.10
2022-11-15T23:02:49.581Z,12.32
2022-11-15T23:07:55.841Z,13.68
2022-11-15T23:13:17.509Z,13.63
2022-11-15T23:18:20.683Z,12.60
2022-11-15T23:23:23.422Z,13.77
2022-11-15T23:28:27.368Z,14.07
2022-11-15T23:33:47.457Z,16.55
2022-11-15T23:38:50.105Z,15.30
2022-11-15T23:43:54.300Z,13.80
2022-11-15T23:48:57.177Z,12.10
2022-11-15T23:53:59.998Z,16.75
2022-11-15T23:59:04.445Z,13.82
